sensor_id;sensor_type;location;lat;lon;timestamp;P1;P2;P0
69224;PMS1003;56333;51.306;17.056;2022-12-18T00:00:13;62.40;22.10;
69224;PMS1003;56333;51.306;17.056;2022-12-18T00:02:04;67.40;22.60;
69224;PMS1003;56333;51.306;17.056;2022-12-18T00:03:33;62.70;21.50;
69224;PMS1003;56333;51.306;17.056;2022-12-18T00:05:02;61.90;21.00;
69224;PMS1003;56333;51.306;17.056;2022-12-18T00:06:33;61.40;21.40;
69224;PMS1003;56333;51.306;17.056;2022-12-18T00:08:02;61.90;22.30;
69224;PMS1003;56333;51.306;17.056;2022-12-18T00:09:30;57.20;21.20;
69224;PMS1003;56333;51.306;17.056;2022-12-18T00:11:06;60.90;21.70;
69224;PMS1003;56333;51.306;17.056;2022-12-18T00:12:35;59.80;22.30;
69224;PMS1003;56333;51.306;17.056;2022-12-18T00:14:04;62.30;21.90;
69224;PMS1003;56333;51.306;17.056;2022-12-18T00:15:34;60.90;22.00;
69224;PMS1003;56333;51.306;17.056;2022-12-18T00:17:03;65.80;23.20;
69224;PMS1003;56333;51.306;17.056;2022-12-18T00:18:32;64.40;25.50;
69224;PMS1003;56333;51.306;17.056;2022-12-18T00:20:00;62.10;22.30;
69224;PMS1003;56333;51.306;17.056;2022-12-18T00:21:30;57.30;21.10;
69224;PMS1003;56333;51.306;17.056;2022-12-18T00:22:59;56.30;19.90;
69224;PMS1003;56333;51.306;17.056;2022-12-18T00:24:28;57.00;20.30;
69224;PMS1003;56333;51.306;17.056;2022-12-18T00:25:59;61.20;19.40;
69224;PMS1003;56333;51.306;17.056;2022-12-18T00:27:29;55.20;18.60;
69224;PMS1003;56333;51.306;17.056;2022-12-18T00:29:00;54.40;19.20;
69224;PMS1003;56333;51.306;17.056;2022-12-18T00:30:30;46.10;16.80;
69224;PMS1003;56333;51.306;17.056;2022-12-18T00:31:58;48.70;17.50;
69224;PMS1003;56333;51.306;17.056;2022-12-18T00:33:27;44.10;16.20;
69224;PMS1003;56333;51.306;17.056;2022-12-18T00:34:55;45.60;15.10;
69224;PMS1003;56333;51.306;17.056;2022-12-18T00:36:26;42.80;15.80;
69224;PMS1003;56333;51.306;17.056;2022-12-18T00:37:55;63.60;28.90;
69224;PMS1003;56333;51.306;17.056;2022-12-18T00:39:24;57.70;25.00;
69224;PMS1003;56333;51.306;17.056;2022-12-18T00:40:52;49.70;19.50;
69224;PMS1003;56333;51.306;17.056;2022-12-18T00:42:21;53.80;18.50;
69224;PMS1003;56333;51.306;17.056;2022-12-18T00:44:09;47.30;17.10;
69224;PMS1003;56333;51.306;17.056;2022-12-18T00:45:38;51.50;17.30;
69224;PMS1003;56333;51.306;17.056;2022-12-18T00:47:07;51.00;17.60;
69224;PMS1003;56333;51.306;17.056;2022-12-18T00:48:36;53.30;18.40;
69224;PMS1003;56333;51.306;17.056;2022-12-18T00:50:06;52.60;17.10;
69224;PMS1003;56333;51.306;17.056;2022-12-18T00:51:35;48.70;17.60;
69224;PMS1003;56333;51.306;17.056;2022-12-18T00:53:04;46.60;17.50;
69224;PMS1003;56333;51.306;17.056;2022-12-18T00:54:33;46.60;16.20;
69224;PMS1003;56333;51.306;17.056;2022-12-18T00:56:01;50.20;17.60;
69224;PMS1003;56333;51.306;17.056;2022-12-18T00:57:30;50.30;17.40;
69224;PMS1003;56333;51.306;17.056;2022-12-18T00:58:58;109.20;39.30;
69224;PMS1003;56333;51.306;17.056;2022-12-18T01:00:27;54.90;18.20;
69224;PMS1003;56333;51.306;17.056;2022-12-18T01:01:55;47.80;16.90;
69224;PMS1003;56333;51.306;17.056;2022-12-18T01:03:24;50.80;16.70;
69224;PMS1003;56333;51.306;17.056;2022-12-18T01:04:53;47.90;17.00;
69224;PMS1003;56333;51.306;17.056;2022-12-18T01:06:22;46.20;15.90;
69224;PMS1003;56333;51.306;17.056;2022-12-18T01:07:50;42.40;15.20;
69224;PMS1003;56333;51.306;17.056;2022-12-18T01:09:19;46.90;16.80;
69224;PMS1003;56333;51.306;17.056;2022-12-18T01:10:47;44.90;16.30;
69224;PMS1003;56333;51.306;17.056;2022-12-18T01:12:16;43.40;15.10;
69224;PMS1003;56333;51.306;17.056;2022-12-18T01:13:45;44.30;14.70;
69224;PMS1003;56333;51.306;17.056;2022-12-18T01:15:16;42.10;15.00;
69224;PMS1003;56333;51.306;17.056;2022-12-18T01:16:44;44.80;15.60;
69224;PMS1003;56333;51.306;17.056;2022-12-18T01:18:13;42.50;15.60;
69224;PMS1003;56333;51.306;17.056;2022-12-18T01:19:41;44.70;15.40;
69224;PMS1003;56333;51.306;17.056;2022-12-18T01:21:13;45.40;15.40;
69224;PMS1003;56333;51.306;17.056;2022-12-18T01:22:42;40.10;15.50;
69224;PMS1003;56333;51.306;17.056;2022-12-18T01:24:13;45.90;18.40;
69224;PMS1003;56333;51.306;17.056;2022-12-18T01:25:41;43.80;16.40;
69224;PMS1003;56333;51.306;17.056;2022-12-18T01:27:10;45.80;15.30;
69224;PMS1003;56333;51.306;17.056;2022-12-18T01:28:39;44.70;14.70;
69224;PMS1003;56333;51.306;17.056;2022-12-18T01:30:10;36.60;12.80;
69224;PMS1003;56333;51.306;17.056;2022-12-18T01:31:39;43.60;15.00;
69224;PMS1003;56333;51.306;17.056;2022-12-18T01:33:08;47.70;15.10;
69224;PMS1003;56333;51.306;17.056;2022-12-18T01:34:38;40.10;14.10;
69224;PMS1003;56333;51.306;17.056;2022-12-18T01:36:08;40.10;14.10;
69224;PMS1003;56333;51.306;17.056;2022-12-18T01:37:38;38.50;14.20;
69224;PMS1003;56333;51.306;17.056;2022-12-18T01:39:10;42.90;14.60;
69224;PMS1003;56333;51.306;17.056;2022-12-18T01:40:41;39.50;14.80;
69224;PMS1003;56333;51.306;17.056;2022-12-18T01:42:15;45.40;15.00;
69224;PMS1003;56333;51.306;17.056;2022-12-18T01:43:52;43.80;15.00;
69224;PMS1003;56333;51.306;17.056;2022-12-18T01:45:31;37.60;13.90;
69224;PMS1003;56333;51.306;17.056;2022-12-18T01:47:00;37.90;14.00;
69224;PMS1003;56333;51.306;17.056;2022-12-18T01:48:28;40.30;14.30;
69224;PMS1003;56333;51.306;17.056;2022-12-18T01:49:59;42.80;14.50;
69224;PMS1003;56333;51.306;17.056;2022-12-18T01:51:31;39.10;13.60;
69224;PMS1003;56333;51.306;17.056;2022-12-18T01:53:03;42.10;15.60;
69224;PMS1003;56333;51.306;17.056;2022-12-18T01:54:34;38.20;14.20;
69224;PMS1003;56333;51.306;17.056;2022-12-18T01:56:02;37.30;14.10;
69224;PMS1003;56333;51.306;17.056;2022-12-18T01:57:32;41.80;14.50;
69224;PMS1003;56333;51.306;17.056;2022-12-18T01:59:05;39.80;14.70;
69224;PMS1003;56333;51.306;17.056;2022-12-18T02:00:36;43.90;14.80;
69224;PMS1003;56333;51.306;17.056;2022-12-18T02:02:04;46.10;15.20;
69224;PMS1003;56333;51.306;17.056;2022-12-18T02:03:33;41.50;16.40;
69224;PMS1003;56333;51.306;17.056;2022-12-18T02:05:03;37.00;13.70;
69224;PMS1003;56333;51.306;17.056;2022-12-18T02:06:39;40.20;14.50;
69224;PMS1003;56333;51.306;17.056;2022-12-18T02:08:19;35.40;13.40;
69224;PMS1003;56333;51.306;17.056;2022-12-18T02:09:55;37.60;14.40;
69224;PMS1003;56333;51.306;17.056;2022-12-18T02:11:37;40.40;14.60;
69224;PMS1003;56333;51.306;17.056;2022-12-18T02:13:17;37.00;15.10;
69224;PMS1003;56333;51.306;17.056;2022-12-18T02:15:01;37.80;15.30;
69224;PMS1003;56333;51.306;17.056;2022-12-18T02:16:43;39.80;15.50;
69224;PMS1003;56333;51.306;17.056;2022-12-18T02:18:19;40.90;14.20;
69224;PMS1003;56333;51.306;17.056;2022-12-18T02:20:04;45.30;17.60;
69224;PMS1003;56333;51.306;17.056;2022-12-18T02:21:48;38.40;14.70;
69224;PMS1003;56333;51.306;17.056;2022-12-18T02:23:37;37.80;14.10;
69224;PMS1003;56333;51.306;17.056;2022-12-18T02:25:26;36.60;13.80;
69224;PMS1003;56333;51.306;17.056;2022-12-18T02:27:04;39.90;14.50;
69224;PMS1003;56333;51.306;17.056;2022-12-18T02:28:39;41.80;14.40;
69224;PMS1003;56333;51.306;17.056;2022-12-18T02:30:11;44.90;15.20;
69224;PMS1003;56333;51.306;17.056;2022-12-18T02:31:45;37.00;14.00;
69224;PMS1003;56333;51.306;17.056;2022-12-18T02:33:17;36.80;14.20;
69224;PMS1003;56333;51.306;17.056;2022-12-18T02:34:48;38.60;14.10;
69224;PMS1003;56333;51.306;17.056;2022-12-18T02:36:17;34.50;13.90;
69224;PMS1003;56333;51.306;17.056;2022-12-18T02:37:48;35.70;13.70;
69224;PMS1003;56333;51.306;17.056;2022-12-18T02:39:20;36.40;14.10;
69224;PMS1003;56333;51.306;17.056;2022-12-18T02:40:56;36.90;14.20;
69224;PMS1003;56333;51.306;17.056;2022-12-18T02:42:26;34.20;13.60;
69224;PMS1003;56333;51.306;17.056;2022-12-18T02:43:59;41.70;14.80;
69224;PMS1003;56333;51.306;17.056;2022-12-18T02:45:33;39.50;14.40;
69224;PMS1003;56333;51.306;17.056;2022-12-18T02:47:02;42.50;15.10;
69224;PMS1003;56333;51.306;17.056;2022-12-18T02:48:35;37.50;15.00;
69224;PMS1003;56333;51.306;17.056;2022-12-18T02:50:12;38.60;14.60;
69224;PMS1003;56333;51.306;17.056;2022-12-18T02:51:52;39.50;14.20;
69224;PMS1003;56333;51.306;17.056;2022-12-18T02:53:26;39.20;15.10;
69224;PMS1003;56333;51.306;17.056;2022-12-18T02:55:08;40.40;15.20;
69224;PMS1003;56333;51.306;17.056;2022-12-18T02:56:49;39.00;13.50;
69224;PMS1003;56333;51.306;17.056;2022-12-18T02:58:29;37.30;13.90;
69224;PMS1003;56333;51.306;17.056;2022-12-18T03:00:08;35.70;13.40;
69224;PMS1003;56333;51.306;17.056;2022-12-18T03:01:46;39.60;14.10;
69224;PMS1003;56333;51.306;17.056;2022-12-18T03:03:26;37.40;13.40;
69224;PMS1003;56333;51.306;17.056;2022-12-18T03:05:03;37.20;13.70;
69224;PMS1003;56333;51.306;17.056;2022-12-18T03:06:39;39.10;14.00;
69224;PMS1003;56333;51.306;17.056;2022-12-18T03:08:16;34.70;14.10;
69224;PMS1003;56333;51.306;17.056;2022-12-18T03:09:50;35.40;13.70;
69224;PMS1003;56333;51.306;17.056;2022-12-18T03:11:20;35.80;14.20;
69224;PMS1003;56333;51.306;17.056;2022-12-18T03:13:13;38.60;14.90;
69224;PMS1003;56333;51.306;17.056;2022-12-18T03:14:44;42.20;15.40;
69224;PMS1003;56333;51.306;17.056;2022-12-18T03:16:22;38.30;14.10;
69224;PMS1003;56333;51.306;17.056;2022-12-18T03:18:03;36.10;14.00;
69224;PMS1003;56333;51.306;17.056;2022-12-18T03:21:05;34.80;14.00;
69224;PMS1003;56333;51.306;17.056;2022-12-18T03:22:38;34.60;13.70;
69224;PMS1003;56333;51.306;17.056;2022-12-18T03:24:11;35.50;12.70;
69224;PMS1003;56333;51.306;17.056;2022-12-18T03:25:43;36.50;13.40;
69224;PMS1003;56333;51.306;17.056;2022-12-18T03:27:17;38.70;13.50;
69224;PMS1003;56333;51.306;17.056;2022-12-18T03:28:51;39.90;13.30;
69224;PMS1003;56333;51.306;17.056;2022-12-18T03:30:24;36.70;13.80;
69224;PMS1003;56333;51.306;17.056;2022-12-18T03:31:59;40.60;14.10;
69224;PMS1003;56333;51.306;17.056;2022-12-18T03:33:37;39.20;14.60;
69224;PMS1003;56333;51.306;17.056;2022-12-18T03:35:12;37.30;15.00;
69224;PMS1003;56333;51.306;17.056;2022-12-18T03:36:42;38.80;14.80;
69224;PMS1003;56333;51.306;17.056;2022-12-18T03:38:11;38.60;14.50;
69224;PMS1003;56333;51.306;17.056;2022-12-18T03:39:43;41.70;15.40;
69224;PMS1003;56333;51.306;17.056;2022-12-18T03:41:24;39.10;15.40;
69224;PMS1003;56333;51.306;17.056;2022-12-18T03:43:55;41.40;15.60;
69224;PMS1003;56333;51.306;17.056;2022-12-18T03:45:34;43.60;15.70;
69224;PMS1003;56333;51.306;17.056;2022-12-18T03:47:09;41.30;15.00;
69224;PMS1003;56333;51.306;17.056;2022-12-18T03:48:44;40.60;14.00;
69224;PMS1003;56333;51.306;17.056;2022-12-18T03:50:20;33.90;13.00;
69224;PMS1003;56333;51.306;17.056;2022-12-18T03:51:57;36.60;14.00;
69224;PMS1003;56333;51.306;17.056;2022-12-18T03:53:39;39.90;14.40;
69224;PMS1003;56333;51.306;17.056;2022-12-18T03:55:12;44.40;14.90;
69224;PMS1003;56333;51.306;17.056;2022-12-18T03:56:45;43.00;15.10;
69224;PMS1003;56333;51.306;17.056;2022-12-18T03:58:19;38.50;13.80;
69224;PMS1003;56333;51.306;17.056;2022-12-18T04:00:04;36.50;14.10;
69224;PMS1003;56333;51.306;17.056;2022-12-18T04:01:52;34.80;13.20;
69224;PMS1003;56333;51.306;17.056;2022-12-18T04:03:24;39.80;15.00;
69224;PMS1003;56333;51.306;17.056;2022-12-18T04:04:59;39.20;14.00;
69224;PMS1003;56333;51.306;17.056;2022-12-18T04:06:31;36.00;13.90;
69224;PMS1003;56333;51.306;17.056;2022-12-18T04:08:00;38.10;14.70;
69224;PMS1003;56333;51.306;17.056;2022-12-18T04:09:31;36.70;13.60;
69224;PMS1003;56333;51.306;17.056;2022-12-18T04:11:00;40.70;14.70;
69224;PMS1003;56333;51.306;17.056;2022-12-18T04:12:30;39.30;15.10;
69224;PMS1003;56333;51.306;17.056;2022-12-18T04:14:00;39.90;16.60;
69224;PMS1003;56333;51.306;17.056;2022-12-18T04:15:30;38.60;14.80;
69224;PMS1003;56333;51.306;17.056;2022-12-18T04:16:59;37.90;14.70;
69224;PMS1003;56333;51.306;17.056;2022-12-18T04:18:29;36.50;13.90;
69224;PMS1003;56333;51.306;17.056;2022-12-18T04:19:59;34.30;13.40;
69224;PMS1003;56333;51.306;17.056;2022-12-18T04:21:29;42.60;14.70;
69224;PMS1003;56333;51.306;17.056;2022-12-18T04:22:57;35.50;14.10;
69224;PMS1003;56333;51.306;17.056;2022-12-18T04:24:26;35.30;12.70;
69224;PMS1003;56333;51.306;17.056;2022-12-18T04:26:03;34.30;13.10;
69224;PMS1003;56333;51.306;17.056;2022-12-18T04:27:41;36.40;13.80;
69224;PMS1003;56333;51.306;17.056;2022-12-18T04:29:09;40.80;16.60;
69224;PMS1003;56333;51.306;17.056;2022-12-18T04:30:38;35.80;14.90;
69224;PMS1003;56333;51.306;17.056;2022-12-18T04:32:07;33.60;13.70;
69224;PMS1003;56333;51.306;17.056;2022-12-18T04:33:36;36.60;13.70;
69224;PMS1003;56333;51.306;17.056;2022-12-18T04:35:06;36.90;14.00;
69224;PMS1003;56333;51.306;17.056;2022-12-18T04:36:37;39.10;14.80;
69224;PMS1003;56333;51.306;17.056;2022-12-18T04:38:06;36.60;14.60;
69224;PMS1003;56333;51.306;17.056;2022-12-18T04:39:34;40.90;15.50;
69224;PMS1003;56333;51.306;17.056;2022-12-18T04:41:07;37.70;14.80;
69224;PMS1003;56333;51.306;17.056;2022-12-18T04:42:35;39.20;15.00;
69224;PMS1003;56333;51.306;17.056;2022-12-18T04:44:04;41.20;16.30;
69224;PMS1003;56333;51.306;17.056;2022-12-18T04:45:33;43.90;16.20;
69224;PMS1003;56333;51.306;17.056;2022-12-18T04:47:01;39.50;15.50;
69224;PMS1003;56333;51.306;17.056;2022-12-18T04:48:29;39.40;15.10;
69224;PMS1003;56333;51.306;17.056;2022-12-18T04:49:58;35.30;13.20;
69224;PMS1003;56333;51.306;17.056;2022-12-18T04:51:26;35.20;14.10;
69224;PMS1003;56333;51.306;17.056;2022-12-18T04:52:55;33.60;13.90;
69224;PMS1003;56333;51.306;17.056;2022-12-18T04:54:23;32.80;13.80;
69224;PMS1003;56333;51.306;17.056;2022-12-18T04:55:51;35.80;14.50;
69224;PMS1003;56333;51.306;17.056;2022-12-18T04:57:30;38.10;15.50;
69224;PMS1003;56333;51.306;17.056;2022-12-18T04:58:58;34.20;14.10;
69224;PMS1003;56333;51.306;17.056;2022-12-18T05:00:27;34.10;14.10;
69224;PMS1003;56333;51.306;17.056;2022-12-18T05:01:55;32.60;13.60;
69224;PMS1003;56333;51.306;17.056;2022-12-18T05:03:24;30.90;13.70;
69224;PMS1003;56333;51.306;17.056;2022-12-18T05:04:52;37.20;15.30;
69224;PMS1003;56333;51.306;17.056;2022-12-18T05:06:21;36.20;13.90;
69224;PMS1003;56333;51.306;17.056;2022-12-18T05:07:49;32.60;13.20;
69224;PMS1003;56333;51.306;17.056;2022-12-18T05:09:18;37.10;13.40;
69224;PMS1003;56333;51.306;17.056;2022-12-18T05:10:46;32.80;13.60;
69224;PMS1003;56333;51.306;17.056;2022-12-18T05:12:15;34.50;13.00;
69224;PMS1003;56333;51.306;17.056;2022-12-18T05:13:44;36.80;13.00;
69224;PMS1003;56333;51.306;17.056;2022-12-18T05:15:13;35.00;14.60;
69224;PMS1003;56333;51.306;17.056;2022-12-18T05:16:41;35.50;13.40;
69224;PMS1003;56333;51.306;17.056;2022-12-18T05:18:10;35.10;13.20;
69224;PMS1003;56333;51.306;17.056;2022-12-18T05:19:39;34.10;13.70;
69224;PMS1003;56333;51.306;17.056;2022-12-18T05:21:08;35.50;13.50;
69224;PMS1003;56333;51.306;17.056;2022-12-18T05:22:36;37.00;14.10;
69224;PMS1003;56333;51.306;17.056;2022-12-18T05:24:06;37.40;14.50;
69224;PMS1003;56333;51.306;17.056;2022-12-18T05:25:35;36.40;15.10;
69224;PMS1003;56333;51.306;17.056;2022-12-18T05:27:04;37.10;15.60;
69224;PMS1003;56333;51.306;17.056;2022-12-18T05:28:34;41.10;16.50;
69224;PMS1003;56333;51.306;17.056;2022-12-18T05:30:04;37.80;14.90;
69224;PMS1003;56333;51.306;17.056;2022-12-18T05:31:34;31.00;11.80;
69224;PMS1003;56333;51.306;17.056;2022-12-18T05:33:02;38.00;14.00;
69224;PMS1003;56333;51.306;17.056;2022-12-18T05:34:31;36.60;13.30;
69224;PMS1003;56333;51.306;17.056;2022-12-18T05:36:01;36.70;13.50;
69224;PMS1003;56333;51.306;17.056;2022-12-18T05:37:30;37.60;13.30;
69224;PMS1003;56333;51.306;17.056;2022-12-18T05:38:59;35.50;14.00;
69224;PMS1003;56333;51.306;17.056;2022-12-18T05:40:28;37.40;14.30;
69224;PMS1003;56333;51.306;17.056;2022-12-18T05:41:56;39.20;14.90;
69224;PMS1003;56333;51.306;17.056;2022-12-18T05:43:27;37.00;15.10;
69224;PMS1003;56333;51.306;17.056;2022-12-18T05:46:23;35.00;13.70;
69224;PMS1003;56333;51.306;17.056;2022-12-18T05:47:52;35.80;14.00;
69224;PMS1003;56333;51.306;17.056;2022-12-18T05:49:20;39.30;13.90;
69224;PMS1003;56333;51.306;17.056;2022-12-18T05:50:50;37.10;15.70;
69224;PMS1003;56333;51.306;17.056;2022-12-18T05:52:19;39.60;14.90;
69224;PMS1003;56333;51.306;17.056;2022-12-18T05:53:48;40.10;14.80;
69224;PMS1003;56333;51.306;17.056;2022-12-18T05:55:17;39.50;13.80;
69224;PMS1003;56333;51.306;17.056;2022-12-18T05:56:45;43.90;15.90;
69224;PMS1003;56333;51.306;17.056;2022-12-18T05:58:14;36.00;14.00;
69224;PMS1003;56333;51.306;17.056;2022-12-18T05:59:43;37.80;14.70;
69224;PMS1003;56333;51.306;17.056;2022-12-18T06:01:15;38.30;16.10;
69224;PMS1003;56333;51.306;17.056;2022-12-18T06:02:47;39.80;14.90;
69224;PMS1003;56333;51.306;17.056;2022-12-18T06:04:16;39.00;15.10;
69224;PMS1003;56333;51.306;17.056;2022-12-18T06:05:46;40.40;15.50;
69224;PMS1003;56333;51.306;17.056;2022-12-18T06:07:14;35.80;14.30;
69224;PMS1003;56333;51.306;17.056;2022-12-18T06:08:43;38.80;15.40;
69224;PMS1003;56333;51.306;17.056;2022-12-18T06:10:12;37.50;15.40;
69224;PMS1003;56333;51.306;17.056;2022-12-18T06:11:40;35.90;14.30;
69224;PMS1003;56333;51.306;17.056;2022-12-18T06:13:09;40.60;15.80;
69224;PMS1003;56333;51.306;17.056;2022-12-18T06:14:37;36.60;14.00;
69224;PMS1003;56333;51.306;17.056;2022-12-18T06:16:07;38.60;15.20;
69224;PMS1003;56333;51.306;17.056;2022-12-18T06:17:36;35.70;15.40;
69224;PMS1003;56333;51.306;17.056;2022-12-18T06:19:06;41.10;17.30;
69224;PMS1003;56333;51.306;17.056;2022-12-18T06:20:39;37.80;15.30;
69224;PMS1003;56333;51.306;17.056;2022-12-18T06:22:08;38.80;15.20;
69224;PMS1003;56333;51.306;17.056;2022-12-18T06:23:37;38.60;15.20;
69224;PMS1003;56333;51.306;17.056;2022-12-18T06:25:07;39.40;14.70;
69224;PMS1003;56333;51.306;17.056;2022-12-18T06:26:38;36.80;14.30;
69224;PMS1003;56333;51.306;17.056;2022-12-18T06:28:07;34.50;14.30;
69224;PMS1003;56333;51.306;17.056;2022-12-18T06:29:35;32.80;13.10;
69224;PMS1003;56333;51.306;17.056;2022-12-18T06:31:05;33.60;13.70;
69224;PMS1003;56333;51.306;17.056;2022-12-18T06:32:34;34.00;14.10;
69224;PMS1003;56333;51.306;17.056;2022-12-18T06:34:04;35.10;14.60;
69224;PMS1003;56333;51.306;17.056;2022-12-18T06:35:34;34.20;13.80;
69224;PMS1003;56333;51.306;17.056;2022-12-18T06:37:02;36.00;14.00;
69224;PMS1003;56333;51.306;17.056;2022-12-18T06:38:32;33.60;13.70;
69224;PMS1003;56333;51.306;17.056;2022-12-18T06:40:01;36.70;14.20;
69224;PMS1003;56333;51.306;17.056;2022-12-18T06:41:30;32.50;12.50;
69224;PMS1003;56333;51.306;17.056;2022-12-18T06:42:59;40.40;14.10;
69224;PMS1003;56333;51.306;17.056;2022-12-18T06:44:28;32.70;13.00;
69224;PMS1003;56333;51.306;17.056;2022-12-18T06:46:02;35.40;14.40;
69224;PMS1003;56333;51.306;17.056;2022-12-18T06:47:31;37.80;14.00;
69224;PMS1003;56333;51.306;17.056;2022-12-18T06:48:59;42.60;16.20;
69224;PMS1003;56333;51.306;17.056;2022-12-18T06:50:28;40.30;15.80;
69224;PMS1003;56333;51.306;17.056;2022-12-18T06:51:56;39.20;15.90;
69224;PMS1003;56333;51.306;17.056;2022-12-18T06:53:25;41.40;15.70;
69224;PMS1003;56333;51.306;17.056;2022-12-18T06:54:53;39.60;15.50;
69224;PMS1003;56333;51.306;17.056;2022-12-18T06:56:22;41.60;16.30;
69224;PMS1003;56333;51.306;17.056;2022-12-18T06:57:50;41.80;15.70;
69224;PMS1003;56333;51.306;17.056;2022-12-18T06:59:20;43.30;16.00;
69224;PMS1003;56333;51.306;17.056;2022-12-18T07:00:48;37.80;16.10;
69224;PMS1003;56333;51.306;17.056;2022-12-18T07:02:17;44.30;17.40;
69224;PMS1003;56333;51.306;17.056;2022-12-18T07:03:46;42.70;17.30;
69224;PMS1003;56333;51.306;17.056;2022-12-18T07:05:18;40.10;15.70;
69224;PMS1003;56333;51.306;17.056;2022-12-18T07:06:46;39.50;16.00;
69224;PMS1003;56333;51.306;17.056;2022-12-18T07:08:15;39.50;15.50;
69224;PMS1003;56333;51.306;17.056;2022-12-18T07:09:43;44.90;16.70;
69224;PMS1003;56333;51.306;17.056;2022-12-18T07:11:12;43.20;16.40;
69224;PMS1003;56333;51.306;17.056;2022-12-18T07:12:41;41.50;16.40;
69224;PMS1003;56333;51.306;17.056;2022-12-18T07:14:10;42.80;15.30;
69224;PMS1003;56333;51.306;17.056;2022-12-18T07:15:38;41.00;16.00;
69224;PMS1003;56333;51.306;17.056;2022-12-18T07:17:07;39.20;16.40;
69224;PMS1003;56333;51.306;17.056;2022-12-18T07:18:35;39.60;16.40;
69224;PMS1003;56333;51.306;17.056;2022-12-18T07:20:05;38.80;15.30;
69224;PMS1003;56333;51.306;17.056;2022-12-18T07:21:35;42.00;16.50;
69224;PMS1003;56333;51.306;17.056;2022-12-18T07:23:04;41.10;17.30;
69224;PMS1003;56333;51.306;17.056;2022-12-18T07:24:33;41.60;16.70;
69224;PMS1003;56333;51.306;17.056;2022-12-18T07:26:06;37.40;15.10;
69224;PMS1003;56333;51.306;17.056;2022-12-18T07:27:35;41.10;16.60;
69224;PMS1003;56333;51.306;17.056;2022-12-18T07:29:03;41.50;16.40;
69224;PMS1003;56333;51.306;17.056;2022-12-18T07:30:32;40.20;17.10;
69224;PMS1003;56333;51.306;17.056;2022-12-18T07:32:00;38.40;16.70;
69224;PMS1003;56333;51.306;17.056;2022-12-18T07:33:29;44.50;17.40;
69224;PMS1003;56333;51.306;17.056;2022-12-18T07:34:57;34.80;13.50;
69224;PMS1003;56333;51.306;17.056;2022-12-18T07:36:26;45.00;17.00;
69224;PMS1003;56333;51.306;17.056;2022-12-18T07:37:54;50.50;17.80;
69224;PMS1003;56333;51.306;17.056;2022-12-18T07:39:23;45.70;18.40;
69224;PMS1003;56333;51.306;17.056;2022-12-18T07:40:51;45.30;19.50;
69224;PMS1003;56333;51.306;17.056;2022-12-18T07:42:20;39.20;17.30;
69224;PMS1003;56333;51.306;17.056;2022-12-18T07:43:57;41.70;16.90;
69224;PMS1003;56333;51.306;17.056;2022-12-18T07:45:25;41.70;16.60;
69224;PMS1003;56333;51.306;17.056;2022-12-18T07:46:54;40.10;15.40;
69224;PMS1003;56333;51.306;17.056;2022-12-18T07:48:23;44.00;18.30;
69224;PMS1003;56333;51.306;17.056;2022-12-18T07:49:52;36.90;15.10;
69224;PMS1003;56333;51.306;17.056;2022-12-18T07:51:20;49.90;18.30;
69224;PMS1003;56333;51.306;17.056;2022-12-18T07:52:48;43.70;17.20;
69224;PMS1003;56333;51.306;17.056;2022-12-18T07:54:17;46.90;18.10;
69224;PMS1003;56333;51.306;17.056;2022-12-18T07:55:46;43.00;17.00;
69224;PMS1003;56333;51.306;17.056;2022-12-18T07:57:14;41.00;16.80;
69224;PMS1003;56333;51.306;17.056;2022-12-18T07:58:43;38.20;15.90;
69224;PMS1003;56333;51.306;17.056;2022-12-18T08:00:15;39.70;16.40;
69224;PMS1003;56333;51.306;17.056;2022-12-18T08:01:45;36.90;16.50;
69224;PMS1003;56333;51.306;17.056;2022-12-18T08:03:14;38.30;16.50;
69224;PMS1003;56333;51.306;17.056;2022-12-18T08:04:43;44.10;18.90;
69224;PMS1003;56333;51.306;17.056;2022-12-18T08:06:12;39.30;17.90;
69224;PMS1003;56333;51.306;17.056;2022-12-18T08:07:40;38.60;15.60;
69224;PMS1003;56333;51.306;17.056;2022-12-18T08:09:11;40.40;16.60;
69224;PMS1003;56333;51.306;17.056;2022-12-18T08:10:39;38.30;16.10;
69224;PMS1003;56333;51.306;17.056;2022-12-18T08:12:08;38.50;15.20;
69224;PMS1003;56333;51.306;17.056;2022-12-18T08:13:36;40.50;17.50;
69224;PMS1003;56333;51.306;17.056;2022-12-18T08:15:06;38.20;17.30;
69224;PMS1003;56333;51.306;17.056;2022-12-18T08:16:35;46.00;19.00;
69224;PMS1003;56333;51.306;17.056;2022-12-18T08:18:04;45.30;18.50;
69224;PMS1003;56333;51.306;17.056;2022-12-18T08:19:33;45.20;18.20;
69224;PMS1003;56333;51.306;17.056;2022-12-18T08:21:13;42.10;17.10;
69224;PMS1003;56333;51.306;17.056;2022-12-18T08:22:42;41.60;15.40;
69224;PMS1003;56333;51.306;17.056;2022-12-18T08:24:11;42.40;18.30;
69224;PMS1003;56333;51.306;17.056;2022-12-18T08:25:39;41.50;16.90;
69224;PMS1003;56333;51.306;17.056;2022-12-18T08:27:08;43.30;17.40;
69224;PMS1003;56333;51.306;17.056;2022-12-18T08:28:37;47.80;18.60;
69224;PMS1003;56333;51.306;17.056;2022-12-18T08:30:09;45.80;18.90;
69224;PMS1003;56333;51.306;17.056;2022-12-18T08:31:39;43.70;17.10;
69224;PMS1003;56333;51.306;17.056;2022-12-18T08:33:07;41.70;17.30;
69224;PMS1003;56333;51.306;17.056;2022-12-18T08:34:36;49.30;20.20;
69224;PMS1003;56333;51.306;17.056;2022-12-18T08:36:05;45.00;18.80;
69224;PMS1003;56333;51.306;17.056;2022-12-18T08:37:35;47.10;18.60;
69224;PMS1003;56333;51.306;17.056;2022-12-18T08:39:08;47.20;19.60;
69224;PMS1003;56333;51.306;17.056;2022-12-18T08:40:36;36.80;14.50;
69224;PMS1003;56333;51.306;17.056;2022-12-18T08:42:05;54.60;22.40;
69224;PMS1003;56333;51.306;17.056;2022-12-18T08:43:51;46.00;18.00;
69224;PMS1003;56333;51.306;17.056;2022-12-18T08:45:37;47.20;19.70;
69224;PMS1003;56333;51.306;17.056;2022-12-18T08:47:06;51.90;20.80;
69224;PMS1003;56333;51.306;17.056;2022-12-18T08:48:35;54.00;22.20;
69224;PMS1003;56333;51.306;17.056;2022-12-18T08:50:04;48.60;19.20;
69224;PMS1003;56333;51.306;17.056;2022-12-18T08:51:34;52.10;21.00;
69224;PMS1003;56333;51.306;17.056;2022-12-18T08:53:03;49.70;20.00;
69224;PMS1003;56333;51.306;17.056;2022-12-18T08:54:32;59.40;23.50;
69224;PMS1003;56333;51.306;17.056;2022-12-18T08:56:01;57.30;23.50;
69224;PMS1003;56333;51.306;17.056;2022-12-18T08:57:29;51.30;20.70;
69224;PMS1003;56333;51.306;17.056;2022-12-18T08:58:58;58.70;23.50;
69224;PMS1003;56333;51.306;17.056;2022-12-18T09:00:27;52.10;20.80;
69224;PMS1003;56333;51.306;17.056;2022-12-18T09:01:56;51.90;21.40;
69224;PMS1003;56333;51.306;17.056;2022-12-18T09:03:24;57.80;23.40;
69224;PMS1003;56333;51.306;17.056;2022-12-18T09:04:53;58.00;22.70;